Погода Санта Виторияна 2 недели

Минас-Жерайс, Бразилия

14 - 27 июля
  • 14июля
    Сегодня
    +16°
    +29°
    Ясно и безоблачно
    ВремяПогодаТемператураВлажностьДавлениеВетер, м/сВероятность осадков
    00:00Ясно и безоблачно+21°C45 %715 мм2.7 м/с5 %
    03:00Ясно и безоблачно+18°C57 %714 мм2.2 м/с5 %
    06:00Ясно и безоблачно+17°C65 %714 мм2.0 м/с5 %
    09:00Ясно и безоблачно+21°C46 %716 мм0.3 м/с5 %
    12:00Ясно и безоблачно+26°C32 %716 мм2.1 м/с5 %
    15:00Ясно и безоблачно+29°C26 %714 мм1.1 м/с5 %
    18:00Ясно и безоблачно+27°C30 %714 мм0.7 м/с5 %
    21:00Ясно и безоблачно+22°C39 %714 мм2.3 м/с5 %
  • 15июля
    Понедельник
    +17°
    +29°
    Ясно и безоблачно
    ВремяПогодаТемператураВлажностьДавлениеВетер, м/сВероятность осадков
    00:00Ясно и безоблачно+21°C47 %715 мм3.4 м/с5 %
    03:00Практически безоблачно+19°C69 %714 мм3.2 м/с5 %
    06:00Ясно и безоблачно+18°C83 %714 мм2.4 м/с5 %
    09:00Небольшая облачность+20°C65 %717 мм1.9 м/с5 %
    12:00Небольшая облачность+26°C35 %717 мм1.1 м/с5 %
    15:00Ясно и безоблачно+29°C26 %715 мм0.3 м/с5 %
    18:00Практически безоблачно+26°C34 %715 мм1.5 м/с5 %
    21:00Ясно и безоблачно+22°C52 %716 мм2.3 м/с5 %
  • 16июля
    Вторник
    +17°
    +30°
    Небольшая облачность
    ВремяПогодаТемператураВлажностьДавлениеВетер, м/сВероятность осадков
    00:00Ясно и безоблачно+21°C50 %716 мм3.6 м/с5 %
    03:00Ясно и безоблачно+19°C52 %715 мм2.7 м/с5 %
    06:00Ясно и безоблачно+18°C58 %715 мм2.9 м/с5 %
    09:00Небольшая облачность+21°C43 %717 мм2.0 м/с5 %
    12:00Облачно с прояснениями+28°C29 %717 мм2.9 м/с5 %
    15:00Небольшая облачность+30°C25 %715 мм2.5 м/с5 %
    18:00Ясно и безоблачно+27°C32 %715 мм2.0 м/с5 %
    21:00Ясно и безоблачно+23°C37 %716 мм2.4 м/с5 %
  • 17июля
    Среда
    +17°
    +31°
    Ясно и безоблачно
    ВремяПогодаТемператураВлажностьДавлениеВетер, м/сВероятность осадков
    00:00Ясно и безоблачно+21°C45 %716 мм2.4 м/с5 %
    03:00Ясно и безоблачно+19°C51 %715 мм2.3 м/с5 %
    06:00Ясно и безоблачно+18°C55 %715 мм2.4 м/с5 %
    09:00Ясно и безоблачно+22°C42 %717 мм2.1 м/с5 %
    12:00Ясно и безоблачно+28°C29 %717 мм3.1 м/с5 %
    15:00Ясно и безоблачно+30°C25 %715 мм0.8 м/с5 %
    18:00Ясно и безоблачно+28°C31 %714 мм0.6 м/с5 %
    21:00Ясно и безоблачно+24°C42 %715 мм1.9 м/с5 %
  • 18июля
    Четверг
    +18°
    +31°
    Ясно и безоблачно
    ВремяПогодаТемператураВлажностьДавлениеВетер, м/сВероятность осадков
    00:00Ясно и безоблачно+21°C48 %714 мм2.1 м/с5 %
    03:00Ясно и безоблачно+19°C52 %713 мм2.5 м/с5 %
    06:00Ясно и безоблачно+18°C55 %713 мм2.4 м/с5 %
    09:00Ясно и безоблачно+22°C42 %716 мм2.3 м/с5 %
    12:00Ясно и безоблачно+29°C30 %716 мм2.9 м/с5 %
    15:00Ясно и безоблачно+31°C23 %714 мм1.5 м/с5 %
    18:00Ясно и безоблачно+28°C31 %714 мм1.7 м/с5 %
    21:00Ясно и безоблачно+24°C43 %715 мм2.1 м/с5 %
Мы используем cookies
Соглашаюсь